PWSweather.com
Personal Weather Stations
Station Observations
DW6359
Southwest Cambria, Cambria, WI 53923

Southwest CambriaCambria, WI 53923

Lat: 43.541194, Lon: -89.11275

Elevation: 945

Station Type: Davis Vantage Pro2

http://home.centurytel.net/weathercambria/wxcambria.html

High Low Average
Temperature 13.4°F-10.3°C -3.0°F-19.4°C 8.6°F-13.0°C
Dew Point 7.2°F-13.8°C -6.9°F-21.6°C 3.6°F-15.8°C
Winds 11.0 mph 17.7 kmh Calm Calm 2.0 mph WSW3.2 kmh WSW
Wind Gusts 13.0 mph20.9 kmh -- 1.0 mph1.6 kmh
Humidity 89% 68% 80%
Pressure 30.53 in1033.9 mb 30.41 in1029.8 mb -
Precipitation 0.00 in0.0 mm - -
Hour Temp Dew Point Humidity Winds Wind Gusts Pressure Precip Precip Rate Daily Precip Total
12:00 AM 8.9°F-12.8°C 2.6°F-16.3°C 75% Calm Calm -- 30.50 in1032.8 mb 0.00 in0.0 mm 0.00 in0.0 mm 0.00 in0.0 mm
12:05 AM 8.9°F-12.8°C 2.3°F-16.5°C 74% Calm Calm -- 30.50 in1032.8 mb 0.00 in0.0 mm 0.00 in0.0 mm 0.00 in0.0 mm
12:10 AM 8.9°F-12.8°C 2.6°F-16.3°C 75% Calm Calm -- 30.50 in1032.8 mb 0.00 in0.0 mm 0.00 in0.0 mm 0.00 in0.0 mm
12:15 AM 8.8°F-12.9°C 2.5°F-16.4°C 75% Calm Calm -- 30.50 in1032.8 mb 0.00 in0.0 mm 0.00 in0.0 mm 0.00 in0.0 mm
12:20 AM 8.8°F-12.9°C 2.5°F-16.4°C 75% Calm Calm -- 30.50 in1032.8 mb 0.00 in0.0 mm 0.00 in0.0 mm 0.00 in0.0 mm
12:25 AM 8.8°F-12.9°C 2.8°F-16.2°C 76% Calm Calm -- 30.50 in1032.8 mb 0.00 in0.0 mm 0.00 in0.0 mm 0.00 in0.0 mm
12:30 AM 8.8°F-12.9°C 3.1°F-16.1°C 77% Calm Calm -- 30.50 in1032.8 mb 0.00 in0.0 mm 0.00 in0.0 mm 0.00 in0.0 mm
12:35 AM 8.9°F-12.8°C 3.2°F-16.0°C 77% Calm Calm -- 30.50 in1032.8 mb 0.00 in0.0 mm 0.00 in0.0 mm 0.00 in0.0 mm
12:40 AM 8.9°F-12.8°C 3.5°F-15.8°C 78% Calm Calm -- 30.50 in1032.8 mb 0.00 in0.0 mm 0.00 in0.0 mm 0.00 in0.0 mm
12:45 AM 8.9°F-12.8°C 3.5°F-15.8°C 78% Calm Calm -- 30.50 in1032.8 mb 0.00 in0.0 mm 0.00 in0.0 mm 0.00 in0.0 mm
12:50 AM 8.8°F-12.9°C 3.6°F-15.8°C 79% Calm Calm -- 30.49 in1032.5 mb 0.00 in0.0 mm 0.00 in0.0 mm 0.00 in0.0 mm
12:55 AM 8.9°F-12.8°C 3.7°F-15.7°C 79% Calm Calm -- 30.49 in1032.5 mb 0.00 in0.0 mm 0.00 in0.0 mm 0.00 in0.0 mm
01:00 AM 8.9°F-12.8°C 4.0°F-15.6°C 80% Calm Calm -- 30.49 in1032.5 mb 0.00 in0.0 mm 0.00 in0.0 mm 0.00 in0.0 mm
01:05 AM 8.8°F-12.9°C 3.9°F-15.6°C 80% Calm Calm -- 30.49 in1032.5 mb 0.00 in0.0 mm 0.00 in0.0 mm 0.00 in0.0 mm
01:10 AM 8.9°F-12.8°C 4.0°F-15.6°C 80% Calm Calm -- 30.49 in1032.5 mb 0.00 in0.0 mm 0.00 in0.0 mm 0.00 in0.0 mm
01:15 AM 8.8°F-12.9°C 4.2°F-15.4°C 81% Calm Calm -- 30.49 in1032.5 mb 0.00 in0.0 mm 0.00 in0.0 mm 0.00 in0.0 mm
01:20 AM 8.8°F-12.9°C 4.2°F-15.4°C 81% Calm Calm -- 30.49 in1032.5 mb 0.00 in0.0 mm 0.00 in0.0 mm 0.00 in0.0 mm
01:25 AM 8.9°F-12.8°C 4.5°F-15.3°C 82% Calm Calm -- 30.49 in1032.5 mb 0.00 in0.0 mm 0.00 in0.0 mm 0.00 in0.0 mm
01:30 AM 8.9°F-12.8°C 4.5°F-15.3°C 82% Calm Calm -- 30.49 in1032.5 mb 0.00 in0.0 mm 0.00 in0.0 mm 0.00 in0.0 mm
01:35 AM 8.9°F-12.8°C 4.5°F-15.3°C 82% Calm Calm -- 30.49 in1032.5 mb 0.00 in0.0 mm 0.00 in0.0 mm 0.00 in0.0 mm
01:40 AM 8.8°F-12.9°C 4.4°F-15.3°C 82% Calm Calm -- 30.49 in1032.5 mb 0.00 in0.0 mm 0.00 in0.0 mm 0.00 in0.0 mm
01:45 AM 8.9°F-12.8°C 4.5°F-15.3°C 82% Calm Calm -- 30.48 in1032.2 mb 0.00 in0.0 mm 0.00 in0.0 mm 0.00 in0.0 mm
01:50 AM 8.8°F-12.9°C 4.4°F-15.3°C 82% Calm Calm -- 30.48 in1032.2 mb 0.00 in0.0 mm 0.00 in0.0 mm 0.00 in0.0 mm
01:55 AM 8.8°F-12.9°C 4.7°F-15.2°C 83% Calm Calm -- 30.48 in1032.2 mb 0.00 in0.0 mm 0.00 in0.0 mm 0.00 in0.0 mm
02:00 AM 8.8°F-12.9°C 4.7°F-15.2°C 83% Calm Calm -- 30.48 in1032.2 mb 0.00 in0.0 mm 0.00 in0.0 mm 0.00 in0.0 mm
02:05 AM 8.9°F-12.8°C 4.8°F-15.1°C 83% Calm Calm -- 30.48 in1032.2 mb 0.00 in0.0 mm 0.00 in0.0 mm 0.00 in0.0 mm
02:10 AM 8.9°F-12.8°C 4.8°F-15.1°C 83% Calm Calm -- 30.48 in1032.2 mb 0.00 in0.0 mm 0.00 in0.0 mm 0.00 in0.0 mm
02:15 AM 9.0°F-12.8°C 4.9°F-15.1°C 83% Calm Calm -- 30.48 in1032.2 mb 0.00 in0.0 mm 0.00 in0.0 mm 0.00 in0.0 mm
02:20 AM 9.0°F-12.8°C 5.2°F-14.9°C 84% Calm Calm -- 30.48 in1032.2 mb 0.00 in0.0 mm 0.00 in0.0 mm 0.00 in0.0 mm
02:25 AM 9.0°F-12.8°C 5.2°F-14.9°C 84% Calm Calm -- 30.47 in1031.8 mb 0.00 in0.0 mm 0.00 in0.0 mm 0.00 in0.0 mm
02:30 AM 9.0°F-12.8°C 5.2°F-14.9°C 84% Calm Calm -- 30.48 in1032.2 mb 0.00 in0.0 mm 0.00 in0.0 mm 0.00 in0.0 mm
02:35 AM 9.1°F-12.7°C 5.3°F-14.8°C 84% Calm Calm -- 30.48 in1032.2 mb 0.00 in0.0 mm 0.00 in0.0 mm 0.00 in0.0 mm
02:40 AM 9.1°F-12.7°C 5.3°F-14.8°C 84% Calm Calm -- 30.48 in1032.2 mb 0.00 in0.0 mm 0.00 in0.0 mm 0.00 in0.0 mm
02:45 AM 9.1°F-12.7°C 5.3°F-14.8°C 84% Calm Calm -- 30.48 in1032.2 mb 0.00 in0.0 mm 0.00 in0.0 mm 0.00 in0.0 mm
02:50 AM 9.1°F-12.7°C 5.3°F-14.8°C 84% Calm Calm -- 30.47 in1031.8 mb 0.00 in0.0 mm 0.00 in0.0 mm 0.00 in0.0 mm
02:55 AM 9.2°F-12.7°C 5.4°F-14.8°C 84% Calm Calm -- 30.47 in1031.8 mb 0.00 in0.0 mm 0.00 in0.0 mm 0.00 in0.0 mm
03:00 AM 9.2°F-12.7°C 5.4°F-14.8°C 84% Calm Calm -- 30.47 in1031.8 mb 0.00 in0.0 mm 0.00 in0.0 mm 0.00 in0.0 mm
03:05 AM 9.2°F-12.7°C 5.4°F-14.8°C 84% Calm Calm -- 30.47 in1031.8 mb 0.00 in0.0 mm 0.00 in0.0 mm 0.00 in0.0 mm
03:10 AM 9.2°F-12.7°C 5.4°F-14.8°C 84% Calm Calm -- 30.46 in1031.5 mb 0.00 in0.0 mm 0.00 in0.0 mm 0.00 in0.0 mm
03:15 AM 9.3°F-12.6°C 5.5°F-14.7°C 84% Calm Calm -- 30.46 in1031.5 mb 0.00 in0.0 mm 0.00 in0.0 mm 0.00 in0.0 mm
03:20 AM 9.3°F-12.6°C 5.5°F-14.7°C 84% Calm Calm -- 30.46 in1031.5 mb 0.00 in0.0 mm 0.00 in0.0 mm 0.00 in0.0 mm
03:25 AM 9.3°F-12.6°C 5.5°F-14.7°C 84% Calm Calm -- 30.46 in1031.5 mb 0.00 in0.0 mm 0.00 in0.0 mm 0.00 in0.0 mm
03:30 AM 9.3°F-12.6°C 5.5°F-14.7°C 84% Calm Calm -- 30.46 in1031.5 mb 0.00 in0.0 mm 0.00 in0.0 mm 0.00 in0.0 mm
03:35 AM 9.4°F-12.6°C 5.8°F-14.6°C 85% Calm Calm -- 30.45 in1031.2 mb 0.00 in0.0 mm 0.00 in0.0 mm 0.00 in0.0 mm
03:40 AM 9.4°F-12.6°C 5.6°F-14.7°C 84% Calm Calm -- 30.46 in1031.5 mb 0.00 in0.0 mm 0.00 in0.0 mm 0.00 in0.0 mm
03:45 AM 9.3°F-12.6°C 5.5°F-14.7°C 84% Calm Calm -- 30.45 in1031.2 mb 0.00 in0.0 mm 0.00 in0.0 mm 0.00 in0.0 mm
03:50 AM 9.2°F-12.7°C 5.4°F-14.8°C 84% Calm Calm -- 30.45 in1031.2 mb 0.00 in0.0 mm 0.00 in0.0 mm 0.00 in0.0 mm
03:55 AM 9.2°F-12.7°C 5.4°F-14.8°C 84% Calm Calm -- 30.44 in1030.8 mb 0.00 in0.0 mm 0.00 in0.0 mm 0.00 in0.0 mm
04:00 AM 9.2°F-12.7°C 5.6°F-14.7°C 85% Calm Calm -- 30.44 in1030.8 mb 0.00 in0.0 mm 0.00 in0.0 mm 0.00 in0.0 mm
04:05 AM 9.1°F-12.7°C 5.5°F-14.7°C 85% Calm Calm -- 30.44 in1030.8 mb 0.00 in0.0 mm 0.00 in0.0 mm 0.00 in0.0 mm
04:10 AM 9.0°F-12.8°C 5.4°F-14.8°C 85% Calm Calm -- 30.44 in1030.8 mb 0.00 in0.0 mm 0.00 in0.0 mm 0.00 in0.0 mm
04:15 AM 9.1°F-12.7°C 5.5°F-14.7°C 85% Calm Calm -- 30.43 in1030.5 mb 0.00 in0.0 mm 0.00 in0.0 mm 0.00 in0.0 mm
04:20 AM 9.0°F-12.8°C 5.4°F-14.8°C 85% Calm Calm -- 30.43 in1030.5 mb 0.00 in0.0 mm 0.00 in0.0 mm 0.00 in0.0 mm
04:25 AM 9.0°F-12.8°C 5.4°F-14.8°C 85% Calm Calm -- 30.43 in1030.5 mb 0.00 in0.0 mm 0.00 in0.0 mm 0.00 in0.0 mm
04:30 AM 9.1°F-12.7°C 5.5°F-14.7°C 85% Calm Calm -- 30.43 in1030.5 mb 0.00 in0.0 mm 0.00 in0.0 mm 0.00 in0.0 mm
04:35 AM 9.1°F-12.7°C 5.5°F-14.7°C 85% Calm Calm -- 30.44 in1030.8 mb 0.00 in0.0 mm 0.00 in0.0 mm 0.00 in0.0 mm
04:40 AM 9.1°F-12.7°C 5.5°F-14.7°C 85% Calm Calm -- 30.43 in1030.5 mb 0.00 in0.0 mm 0.00 in0.0 mm 0.00 in0.0 mm
04:45 AM 9.1°F-12.7°C 5.5°F-14.7°C 85% Calm Calm -- 30.43 in1030.5 mb 0.00 in0.0 mm 0.00 in0.0 mm 0.00 in0.0 mm
04:50 AM 9.0°F-12.8°C 5.4°F-14.8°C 85% Calm Calm -- 30.43 in1030.5 mb 0.00 in0.0 mm 0.00 in0.0 mm 0.00 in0.0 mm
04:55 AM 9.0°F-12.8°C 5.4°F-14.8°C 85% Calm Calm -- 30.43 in1030.5 mb 0.00 in0.0 mm 0.00 in0.0 mm 0.00 in0.0 mm
05:00 AM 9.0°F-12.8°C 5.4°F-14.8°C 85% Calm Calm -- 30.43 in1030.5 mb 0.00 in0.0 mm 0.00 in0.0 mm 0.00 in0.0 mm
05:05 AM 9.0°F-12.8°C 5.4°F-14.8°C 85% Calm Calm -- 30.43 in1030.5 mb 0.00 in0.0 mm 0.00 in0.0 mm 0.00 in0.0 mm
05:10 AM 9.0°F-12.8°C 5.4°F-14.8°C 85% Calm Calm -- 30.42 in1030.1 mb 0.00 in0.0 mm 0.00 in0.0 mm 0.00 in0.0 mm
05:15 AM 9.1°F-12.7°C 5.5°F-14.7°C 85% Calm Calm -- 30.43 in1030.5 mb 0.00 in0.0 mm 0.00 in0.0 mm 0.00 in0.0 mm
05:20 AM 9.1°F-12.7°C 5.5°F-14.7°C 85% Calm Calm -- 30.43 in1030.5 mb 0.00 in0.0 mm 0.00 in0.0 mm 0.00 in0.0 mm
05:25 AM 9.1°F-12.7°C 5.5°F-14.7°C 85% Calm Calm -- 30.43 in1030.5 mb 0.00 in0.0 mm 0.00 in0.0 mm 0.00 in0.0 mm
05:30 AM 9.1°F-12.7°C 5.5°F-14.7°C 85% Calm Calm -- 30.42 in1030.1 mb 0.00 in0.0 mm 0.00 in0.0 mm 0.00 in0.0 mm
05:35 AM 9.1°F-12.7°C 5.5°F-14.7°C 85% Calm Calm -- 30.43 in1030.5 mb 0.00 in0.0 mm 0.00 in0.0 mm 0.00 in0.0 mm
05:40 AM 9.1°F-12.7°C 5.8°F-14.6°C 86% Calm Calm -- 30.43 in1030.5 mb 0.00 in0.0 mm 0.00 in0.0 mm 0.00 in0.0 mm
05:45 AM 9.0°F-12.8°C 5.7°F-14.6°C 86% Calm Calm -- 30.43 in1030.5 mb 0.00 in0.0 mm 0.00 in0.0 mm 0.00 in0.0 mm
05:50 AM 9.0°F-12.8°C 5.7°F-14.6°C 86% Calm Calm -- 30.42 in1030.1 mb 0.00 in0.0 mm 0.00 in0.0 mm 0.00 in0.0 mm
05:55 AM 9.0°F-12.8°C 5.7°F-14.6°C 86% Calm Calm -- 30.43 in1030.5 mb 0.00 in0.0 mm 0.00 in0.0 mm 0.00 in0.0 mm
06:00 AM 9.0°F-12.8°C 5.7°F-14.6°C 86% Calm Calm -- 30.42 in1030.1 mb 0.00 in0.0 mm 0.00 in0.0 mm 0.00 in0.0 mm
06:05 AM 9.0°F-12.8°C 5.7°F-14.6°C 86% Calm Calm -- 30.43 in1030.5 mb 0.00 in0.0 mm 0.00 in0.0 mm 0.00 in0.0 mm
06:10 AM 9.0°F-12.8°C 5.7°F-14.6°C 86% Calm Calm -- 30.42 in1030.1 mb 0.00 in0.0 mm 0.00 in0.0 mm 0.00 in0.0 mm
06:15 AM 9.0°F-12.8°C 5.7°F-14.6°C 86% Calm Calm -- 30.43 in1030.5 mb 0.00 in0.0 mm 0.00 in0.0 mm 0.00 in0.0 mm
06:20 AM 9.0°F-12.8°C 5.7°F-14.6°C 86% Calm Calm -- 30.42 in1030.1 mb 0.00 in0.0 mm 0.00 in0.0 mm 0.00 in0.0 mm
06:25 AM 9.0°F-12.8°C 5.7°F-14.6°C 86% Calm Calm -- 30.42 in1030.1 mb 0.00 in0.0 mm 0.00 in0.0 mm 0.00 in0.0 mm
06:30 AM 9.0°F-12.8°C 5.7°F-14.6°C 86% Calm Calm -- 30.42 in1030.1 mb 0.00 in0.0 mm 0.00 in0.0 mm 0.00 in0.0 mm
06:35 AM 9.0°F-12.8°C 5.7°F-14.6°C 86% Calm Calm -- 30.42 in1030.1 mb 0.00 in0.0 mm 0.00 in0.0 mm 0.00 in0.0 mm
06:40 AM 9.0°F-12.8°C 5.7°F-14.6°C 86% Calm Calm -- 30.42 in1030.1 mb 0.00 in0.0 mm 0.00 in0.0 mm 0.00 in0.0 mm
06:45 AM 9.0°F-12.8°C 5.7°F-14.6°C 86% Calm Calm -- 30.42 in1030.1 mb 0.00 in0.0 mm 0.00 in0.0 mm 0.00 in0.0 mm
06:50 AM 9.0°F-12.8°C 5.7°F-14.6°C 86% Calm Calm -- 30.42 in1030.1 mb 0.00 in0.0 mm 0.00 in0.0 mm 0.00 in0.0 mm
06:55 AM 9.1°F-12.7°C 5.8°F-14.6°C 86% Calm Calm -- 30.42 in1030.1 mb 0.00 in0.0 mm 0.00 in0.0 mm 0.00 in0.0 mm
07:00 AM 9.1°F-12.7°C 5.8°F-14.6°C 86% Calm Calm -- 30.42 in1030.1 mb 0.00 in0.0 mm 0.00 in0.0 mm 0.00 in0.0 mm
07:05 AM 9.0°F-12.8°C 5.7°F-14.6°C 86% Calm Calm -- 30.42 in1030.1 mb 0.00 in0.0 mm 0.00 in0.0 mm 0.00 in0.0 mm
07:10 AM 9.0°F-12.8°C 5.7°F-14.6°C 86% Calm Calm -- 30.42 in1030.1 mb 0.00 in0.0 mm 0.00 in0.0 mm 0.00 in0.0 mm
07:15 AM 9.0°F-12.8°C 5.7°F-14.6°C 86% Calm Calm -- 30.42 in1030.1 mb 0.00 in0.0 mm 0.00 in0.0 mm 0.00 in0.0 mm
07:20 AM 9.0°F-12.8°C 5.7°F-14.6°C 86% Calm Calm -- 30.41 in1029.8 mb 0.00 in0.0 mm 0.00 in0.0 mm 0.00 in0.0 mm
07:25 AM 9.0°F-12.8°C 5.7°F-14.6°C 86% Calm Calm -- 30.42 in1030.1 mb 0.00 in0.0 mm 0.00 in0.0 mm 0.00 in0.0 mm
07:30 AM 9.1°F-12.7°C 5.8°F-14.6°C 86% Calm Calm -- 30.42 in1030.1 mb 0.00 in0.0 mm 0.00 in0.0 mm 0.00 in0.0 mm
07:35 AM 9.1°F-12.7°C 5.8°F-14.6°C 86% Calm Calm -- 30.42 in1030.1 mb 0.00 in0.0 mm 0.00 in0.0 mm 0.00 in0.0 mm
07:40 AM 9.1°F-12.7°C 5.8°F-14.6°C 86% Calm Calm -- 30.42 in1030.1 mb 0.00 in0.0 mm 0.00 in0.0 mm 0.00 in0.0 mm
07:45 AM 9.2°F-12.7°C 5.9°F-14.5°C 86% Calm Calm -- 30.42 in1030.1 mb 0.00 in0.0 mm 0.00 in0.0 mm 0.00 in0.0 mm
07:50 AM 9.1°F-12.7°C 5.8°F-14.6°C 86% Calm Calm -- 30.43 in1030.5 mb 0.00 in0.0 mm 0.00 in0.0 mm 0.00 in0.0 mm
07:55 AM 9.2°F-12.7°C 5.9°F-14.5°C 86% 1.0 mph SSE1.6 kmh SSE -- 30.43 in1030.5 mb 0.00 in0.0 mm 0.00 in0.0 mm 0.00 in0.0 mm
08:00 AM 9.2°F-12.7°C 5.9°F-14.5°C 86% 2.0 mph SSE3.2 kmh SSE -- 30.43 in1030.5 mb 0.00 in0.0 mm 0.00 in0.0 mm 0.00 in0.0 mm
08:05 AM 9.2°F-12.7°C 5.9°F-14.5°C 86% 1.0 mph SSE1.6 kmh SSE -- 30.43 in1030.5 mb 0.00 in0.0 mm 0.00 in0.0 mm 0.00 in0.0 mm
08:10 AM 9.2°F-12.7°C 5.9°F-14.5°C 86% 1.0 mph SSE1.6 kmh SSE -- 30.44 in1030.8 mb 0.00 in0.0 mm 0.00 in0.0 mm 0.00 in0.0 mm
08:15 AM 9.2°F-12.7°C 5.9°F-14.5°C 86% Calm Calm -- 30.44 in1030.8 mb 0.00 in0.0 mm 0.00 in0.0 mm 0.00 in0.0 mm
08:20 AM 9.2°F-12.7°C 5.9°F-14.5°C 86% 2.0 mph SSE3.2 kmh SSE 4.0 mph6.4 kmh 30.44 in1030.8 mb 0.00 in0.0 mm 0.00 in0.0 mm 0.00 in0.0 mm
08:25 AM 9.3°F-12.6°C 6.0°F-14.4°C 86% Calm Calm 4.0 mph6.4 kmh 30.44 in1030.8 mb 0.00 in0.0 mm 0.00 in0.0 mm 0.00 in0.0 mm
08:30 AM 9.4°F-12.6°C 6.1°F-14.4°C 86% 2.0 mph SSE3.2 kmh SSE -- 30.44 in1030.8 mb 0.00 in0.0 mm 0.00 in0.0 mm 0.00 in0.0 mm
08:35 AM 9.4°F-12.6°C 6.1°F-14.4°C 86% 1.0 mph SSE1.6 kmh SSE -- 30.44 in1030.8 mb 0.00 in0.0 mm 0.00 in0.0 mm 0.00 in0.0 mm
08:40 AM 9.5°F-12.5°C 6.2°F-14.3°C 86% 2.0 mph SSE3.2 kmh SSE -- 30.44 in1030.8 mb 0.00 in0.0 mm 0.00 in0.0 mm 0.00 in0.0 mm
08:45 AM 9.5°F-12.5°C 6.4°F-14.2°C 87% 2.0 mph SSE3.2 kmh SSE -- 30.44 in1030.8 mb 0.00 in0.0 mm 0.00 in0.0 mm 0.00 in0.0 mm
08:50 AM 9.7°F-12.4°C 6.6°F-14.1°C 87% 2.0 mph SSE3.2 kmh SSE -- 30.44 in1030.8 mb 0.00 in0.0 mm 0.00 in0.0 mm 0.00 in0.0 mm
08:55 AM 9.7°F-12.4°C 6.6°F-14.1°C 87% 2.0 mph S3.2 kmh S -- 30.44 in1030.8 mb 0.00 in0.0 mm 0.00 in0.0 mm 0.00 in0.0 mm
09:00 AM 9.8°F-12.3°C 6.5°F-14.2°C 86% 3.0 mph S4.8 kmh S -- 30.44 in1030.8 mb 0.00 in0.0 mm 0.00 in0.0 mm 0.00 in0.0 mm
09:05 AM 9.9°F-12.3°C 6.6°F-14.1°C 86% 2.0 mph S3.2 kmh S -- 30.45 in1031.2 mb 0.00 in0.0 mm 0.00 in0.0 mm 0.00 in0.0 mm
09:10 AM 9.9°F-12.3°C 6.6°F-14.1°C 86% 2.0 mph S3.2 kmh S 4.0 mph6.4 kmh 30.44 in1030.8 mb 0.00 in0.0 mm 0.00 in0.0 mm 0.00 in0.0 mm
09:15 AM 9.2°F-12.7°C 6.6°F-14.1°C 89% 2.0 mph WSW3.2 kmh WSW 4.0 mph6.4 kmh 30.44 in1030.8 mb 0.00 in0.0 mm 0.00 in0.0 mm 0.00 in0.0 mm
09:20 AM 9.2°F-12.7°C 6.4°F-14.2°C 88% 1.0 mph WSW1.6 kmh WSW -- 30.44 in1030.8 mb 0.00 in0.0 mm 0.00 in0.0 mm 0.00 in0.0 mm
09:25 AM 9.4°F-12.6°C 6.6°F-14.1°C 88% Calm Calm -- 30.44 in1030.8 mb 0.00 in0.0 mm 0.00 in0.0 mm 0.00 in0.0 mm
09:30 AM 9.5°F-12.5°C 6.7°F-14.1°C 88% 1.0 mph WSW1.6 kmh WSW -- 30.44 in1030.8 mb 0.00 in0.0 mm 0.00 in0.0 mm 0.00 in0.0 mm
09:35 AM 9.6°F-12.4°C 6.8°F-14.0°C 88% 1.0 mph W1.6 kmh W -- 30.44 in1030.8 mb 0.00 in0.0 mm 0.00 in0.0 mm 0.00 in0.0 mm
09:40 AM 9.6°F-12.4°C 6.5°F-14.2°C 87% 2.0 mph WNW3.2 kmh WNW -- 30.44 in1030.8 mb 0.00 in0.0 mm 0.00 in0.0 mm 0.00 in0.0 mm
09:45 AM 9.8°F-12.3°C 6.7°F-14.1°C 87% Calm Calm -- 30.44 in1030.8 mb 0.00 in0.0 mm 0.00 in0.0 mm 0.00 in0.0 mm
09:50 AM 9.9°F-12.3°C 6.8°F-14.0°C 87% 3.0 mph W4.8 kmh W -- 30.44 in1030.8 mb 0.00 in0.0 mm 0.00 in0.0 mm 0.00 in0.0 mm
09:55 AM 10.0°F-12.2°C 6.9°F-13.9°C 87% 1.0 mph W1.6 kmh W -- 30.44 in1030.8 mb 0.00 in0.0 mm 0.00 in0.0 mm 0.00 in0.0 mm
10:00 AM 10.2°F-12.1°C 7.1°F-13.8°C 87% 2.0 mph WNW3.2 kmh WNW 5.0 mph8.0 kmh 30.44 in1030.8 mb 0.00 in0.0 mm 0.00 in0.0 mm 0.00 in0.0 mm
10:05 AM 10.1°F-12.2°C 6.8°F-14.0°C 86% 5.0 mph NW8.0 kmh NW 5.0 mph8.0 kmh 30.45 in1031.2 mb 0.00 in0.0 mm 0.00 in0.0 mm 0.00 in0.0 mm
10:10 AM 10.2°F-12.1°C 6.9°F-13.9°C 86% 2.0 mph NW3.2 kmh NW -- 30.45 in1031.2 mb 0.00 in0.0 mm 0.00 in0.0 mm 0.00 in0.0 mm
10:15 AM 10.3°F-12.1°C 7.0°F-13.9°C 86% 4.0 mph W6.4 kmh W -- 30.45 in1031.2 mb 0.00 in0.0 mm 0.00 in0.0 mm 0.00 in0.0 mm
10:20 AM 10.4°F-12.0°C 7.1°F-13.8°C 86% 4.0 mph WNW6.4 kmh WNW -- 30.45 in1031.2 mb 0.00 in0.0 mm 0.00 in0.0 mm 0.00 in0.0 mm
10:25 AM 10.5°F-11.9°C 7.2°F-13.8°C 86% 5.0 mph WNW8.0 kmh WNW -- 30.45 in1031.2 mb 0.00 in0.0 mm 0.00 in0.0 mm 0.00 in0.0 mm
10:30 AM 10.6°F-11.9°C 7.0°F-13.9°C 85% 2.0 mph WNW3.2 kmh WNW -- 30.45 in1031.2 mb 0.00 in0.0 mm 0.00 in0.0 mm 0.00 in0.0 mm
10:35 AM 10.8°F-11.8°C 7.2°F-13.8°C 85% 4.0 mph NW6.4 kmh NW -- 30.45 in1031.2 mb 0.00 in0.0 mm 0.00 in0.0 mm 0.00 in0.0 mm
10:40 AM 10.9°F-11.7°C 7.0°F-13.9°C 84% 2.0 mph WNW3.2 kmh WNW -- 30.44 in1030.8 mb 0.00 in0.0 mm 0.00 in0.0 mm 0.00 in0.0 mm
10:45 AM 11.1°F-11.6°C 7.0°F-13.9°C 83% 1.0 mph NW1.6 kmh NW -- 30.44 in1030.8 mb 0.00 in0.0 mm 0.00 in0.0 mm 0.00 in0.0 mm
10:50 AM 11.2°F-11.6°C 7.1°F-13.8°C 83% 5.0 mph NW8.0 kmh NW 10.0 mph16.1 kmh 30.45 in1031.2 mb 0.00 in0.0 mm 0.00 in0.0 mm 0.00 in0.0 mm
10:55 AM 11.4°F-11.4°C 7.0°F-13.9°C 82% 5.0 mph NW8.0 kmh NW 10.0 mph16.1 kmh 30.44 in1030.8 mb 0.00 in0.0 mm 0.00 in0.0 mm 0.00 in0.0 mm
11:00 AM 11.5°F-11.4°C 7.1°F-13.8°C 82% 5.0 mph NW8.0 kmh NW -- 30.44 in1030.8 mb 0.00 in0.0 mm 0.00 in0.0 mm 0.00 in0.0 mm
11:05 AM 11.4°F-11.4°C 6.5°F-14.2°C 80% 3.0 mph NW4.8 kmh NW -- 30.44 in1030.8 mb 0.00 in0.0 mm 0.00 in0.0 mm 0.00 in0.0 mm
11:10 AM 11.4°F-11.4°C 6.5°F-14.2°C 80% 6.0 mph WNW9.7 kmh WNW -- 30.45 in1031.2 mb 0.00 in0.0 mm 0.00 in0.0 mm 0.00 in0.0 mm
11:15 AM 11.5°F-11.4°C 6.5°F-14.2°C 80% 7.0 mph NW11.3 kmh NW -- 30.44 in1030.8 mb 0.00 in0.0 mm 0.00 in0.0 mm 0.00 in0.0 mm
11:20 AM 11.4°F-11.4°C 6.2°F-14.3°C 79% 6.0 mph WNW9.7 kmh WNW -- 30.45 in1031.2 mb 0.00 in0.0 mm 0.00 in0.0 mm 0.00 in0.0 mm
11:25 AM 11.5°F-11.4°C 6.3°F-14.3°C 79% 6.0 mph NW9.7 kmh NW -- 30.45 in1031.2 mb 0.00 in0.0 mm 0.00 in0.0 mm 0.00 in0.0 mm
11:30 AM 11.4°F-11.4°C 6.2°F-14.3°C 79% 9.0 mph NW14.5 kmh NW -- 30.45 in1031.2 mb 0.00 in0.0 mm 0.00 in0.0 mm 0.00 in0.0 mm
11:35 AM 11.5°F-11.4°C 6.0°F-14.4°C 78% 5.0 mph WNW8.0 kmh WNW -- 30.45 in1031.2 mb 0.00 in0.0 mm 0.00 in0.0 mm 0.00 in0.0 mm
11:40 AM 11.5°F-11.4°C 6.3°F-14.3°C 79% 7.0 mph NW11.3 kmh NW 9.0 mph14.5 kmh 30.45 in1031.2 mb 0.00 in0.0 mm 0.00 in0.0 mm 0.00 in0.0 mm
11:45 AM 11.6°F-11.3°C 6.1°F-14.4°C 78% 3.0 mph WNW4.8 kmh WNW 9.0 mph14.5 kmh 30.45 in1031.2 mb 0.00 in0.0 mm 0.00 in0.0 mm 0.00 in0.0 mm
11:50 AM 11.6°F-11.3°C 5.8°F-14.6°C 77% 7.0 mph NW11.3 kmh NW -- 30.45 in1031.2 mb 0.00 in0.0 mm 0.00 in0.0 mm 0.00 in0.0 mm
11:55 AM 11.6°F-11.3°C 6.4°F-14.2°C 79% 3.0 mph WNW4.8 kmh WNW -- 30.45 in1031.2 mb 0.00 in0.0 mm 0.00 in0.0 mm 0.00 in0.0 mm
12:00 PM 12.2°F-11.0°C 7.0°F-13.9°C 79% 6.0 mph NW9.7 kmh NW -- 30.45 in1031.2 mb 0.00 in0.0 mm 0.00 in0.0 mm 0.00 in0.0 mm
12:05 PM 12.3°F-10.9°C 6.8°F-14.0°C 78% 6.0 mph WNW9.7 kmh WNW -- 30.45 in1031.2 mb 0.00 in0.0 mm 0.00 in0.0 mm 0.00 in0.0 mm
12:10 PM 12.5°F-10.8°C 6.7°F-14.1°C 77% 6.0 mph NW9.7 kmh NW -- 30.45 in1031.2 mb 0.00 in0.0 mm 0.00 in0.0 mm 0.00 in0.0 mm
12:15 PM 12.5°F-10.8°C 6.7°F-14.1°C 77% 7.0 mph NW11.3 kmh NW -- 30.45 in1031.2 mb 0.00 in0.0 mm 0.00 in0.0 mm 0.00 in0.0 mm
12:20 PM 12.5°F-10.8°C 6.7°F-14.1°C 77% 5.0 mph W8.0 kmh W -- 30.45 in1031.2 mb 0.00 in0.0 mm 0.00 in0.0 mm 0.00 in0.0 mm
12:25 PM 12.6°F-10.8°C 6.5°F-14.2°C 76% 6.0 mph WNW9.7 kmh WNW -- 30.45 in1031.2 mb 0.00 in0.0 mm 0.00 in0.0 mm 0.00 in0.0 mm
12:30 PM 12.7°F-10.7°C 6.6°F-14.1°C 76% 3.0 mph NNW4.8 kmh NNW 11.0 mph17.7 kmh 30.45 in1031.2 mb 0.00 in0.0 mm 0.00 in0.0 mm 0.00 in0.0 mm
12:35 PM 12.7°F-10.7°C 6.9°F-13.9°C 77% 6.0 mph WNW9.7 kmh WNW 11.0 mph17.7 kmh 30.45 in1031.2 mb 0.00 in0.0 mm 0.00 in0.0 mm 0.00 in0.0 mm
12:40 PM 12.4°F-10.9°C 6.3°F-14.3°C 76% 8.0 mph WNW12.9 kmh WNW -- 30.45 in1031.2 mb 0.00 in0.0 mm 0.00 in0.0 mm 0.00 in0.0 mm
12:45 PM 12.4°F-10.9°C 6.0°F-14.4°C 75% 5.0 mph W8.0 kmh W -- 30.45 in1031.2 mb 0.00 in0.0 mm 0.00 in0.0 mm 0.00 in0.0 mm
12:50 PM 12.4°F-10.9°C 5.7°F-14.6°C 74% 5.0 mph NW8.0 kmh NW -- 30.45 in1031.2 mb 0.00 in0.0 mm 0.00 in0.0 mm 0.00 in0.0 mm
12:55 PM 12.5°F-10.8°C 5.8°F-14.6°C 74% 7.0 mph NNW11.3 kmh NNW -- 30.45 in1031.2 mb 0.00 in0.0 mm 0.00 in0.0 mm 0.00 in0.0 mm
01:00 PM 12.7°F-10.7°C 5.7°F-14.6°C 73% 4.0 mph NW6.4 kmh NW -- 30.45 in1031.2 mb 0.00 in0.0 mm 0.00 in0.0 mm 0.00 in0.0 mm
01:05 PM 12.7°F-10.7°C 5.7°F-14.6°C 73% 5.0 mph NW8.0 kmh NW -- 30.45 in1031.2 mb 0.00 in0.0 mm 0.00 in0.0 mm 0.00 in0.0 mm
01:10 PM 12.7°F-10.7°C 6.0°F-14.4°C 74% 5.0 mph WNW8.0 kmh WNW -- 30.45 in1031.2 mb 0.00 in0.0 mm 0.00 in0.0 mm 0.00 in0.0 mm
01:15 PM 11.9°F-11.2°C 4.9°F-15.1°C 73% 4.0 mph NW6.4 kmh NW -- 30.44 in1030.8 mb 0.00 in0.0 mm 0.00 in0.0 mm 0.00 in0.0 mm
01:20 PM 12.0°F-11.1°C 4.7°F-15.2°C 72% 6.0 mph NW9.7 kmh NW 11.0 mph17.7 kmh 30.44 in1030.8 mb 0.00 in0.0 mm 0.00 in0.0 mm 0.00 in0.0 mm
01:25 PM 12.7°F-10.7°C 5.7°F-14.6°C 73% 7.0 mph NW11.3 kmh NW 11.0 mph17.7 kmh 30.44 in1030.8 mb 0.00 in0.0 mm 0.00 in0.0 mm 0.00 in0.0 mm
01:30 PM 12.6°F-10.8°C 5.6°F-14.7°C 73% 5.0 mph NW8.0 kmh NW -- 30.45 in1031.2 mb 0.00 in0.0 mm 0.00 in0.0 mm 0.00 in0.0 mm
01:35 PM 12.6°F-10.8°C 5.6°F-14.7°C 73% 8.0 mph WNW12.9 kmh WNW -- 30.44 in1030.8 mb 0.00 in0.0 mm 0.00 in0.0 mm 0.00 in0.0 mm
01:40 PM 12.7°F-10.7°C 5.7°F-14.6°C 73% 7.0 mph NW11.3 kmh NW -- 30.44 in1030.8 mb 0.00 in0.0 mm 0.00 in0.0 mm 0.00 in0.0 mm
01:45 PM 12.7°F-10.7°C 5.7°F-14.6°C 73% 6.0 mph W9.7 kmh W -- 30.44 in1030.8 mb 0.00 in0.0 mm 0.00 in0.0 mm 0.00 in0.0 mm
01:50 PM 12.7°F-10.7°C 5.4°F-14.8°C 72% 11.0 mph NW17.7 kmh NW -- 30.44 in1030.8 mb 0.00 in0.0 mm 0.00 in0.0 mm 0.00 in0.0 mm
01:55 PM 12.8°F-10.7°C 5.2°F-14.9°C 71% 8.0 mph W12.9 kmh W -- 30.44 in1030.8 mb 0.00 in0.0 mm 0.00 in0.0 mm 0.00 in0.0 mm
02:00 PM 12.8°F-10.7°C 5.2°F-14.9°C 71% 3.0 mph NW4.8 kmh NW -- 30.44 in1030.8 mb 0.00 in0.0 mm 0.00 in0.0 mm 0.00 in0.0 mm
02:05 PM 13.0°F-10.6°C 5.7°F-14.6°C 72% 7.0 mph WNW11.3 kmh WNW -- 30.44 in1030.8 mb 0.00 in0.0 mm 0.00 in0.0 mm 0.00 in0.0 mm
02:10 PM 12.9°F-10.6°C 5.3°F-14.8°C 71% 6.0 mph WNW9.7 kmh WNW 12.0 mph19.3 kmh 30.44 in1030.8 mb 0.00 in0.0 mm 0.00 in0.0 mm 0.00 in0.0 mm
02:15 PM 13.1°F-10.5°C 5.5°F-14.7°C 71% 2.0 mph NW3.2 kmh NW 12.0 mph19.3 kmh 30.43 in1030.5 mb 0.00 in0.0 mm 0.00 in0.0 mm 0.00 in0.0 mm
02:20 PM 13.1°F-10.5°C 5.5°F-14.7°C 71% 8.0 mph WNW12.9 kmh WNW -- 30.43 in1030.5 mb 0.00 in0.0 mm 0.00 in0.0 mm 0.00 in0.0 mm
02:25 PM 13.2°F-10.4°C 5.6°F-14.7°C 71% 6.0 mph WNW9.7 kmh WNW -- 30.44 in1030.8 mb 0.00 in0.0 mm 0.00 in0.0 mm 0.00 in0.0 mm
02:30 PM 13.2°F-10.4°C 5.3°F-14.8°C 70% 4.0 mph WNW6.4 kmh WNW -- 30.43 in1030.5 mb 0.00 in0.0 mm 0.00 in0.0 mm 0.00 in0.0 mm
02:35 PM 13.1°F-10.5°C 5.2°F-14.9°C 70% 7.0 mph WNW11.3 kmh WNW -- 30.44 in1030.8 mb 0.00 in0.0 mm 0.00 in0.0 mm 0.00 in0.0 mm
02:40 PM 13.0°F-10.6°C 5.1°F-14.9°C 70% 4.0 mph W6.4 kmh W -- 30.44 in1030.8 mb 0.00 in0.0 mm 0.00 in0.0 mm 0.00 in0.0 mm
02:45 PM 13.0°F-10.6°C 5.1°F-14.9°C 70% 6.0 mph N9.7 kmh N -- 30.44 in1030.8 mb 0.00 in0.0 mm 0.00 in0.0 mm 0.00 in0.0 mm
02:50 PM 13.0°F-10.6°C 5.1°F-14.9°C 70% 9.0 mph WNW14.5 kmh WNW -- 30.44 in1030.8 mb 0.00 in0.0 mm 0.00 in0.0 mm 0.00 in0.0 mm
02:55 PM 13.0°F-10.6°C 5.1°F-14.9°C 70% 5.0 mph W8.0 kmh W -- 30.44 in1030.8 mb 0.00 in0.0 mm 0.00 in0.0 mm 0.00 in0.0 mm
03:00 PM 13.0°F-10.6°C 5.1°F-14.9°C 70% 8.0 mph W12.9 kmh W 13.0 mph20.9 kmh 30.44 in1030.8 mb 0.00 in0.0 mm 0.00 in0.0 mm 0.00 in0.0 mm
03:05 PM 13.1°F-10.5°C 5.2°F-14.9°C 70% 11.0 mph WNW17.7 kmh WNW 13.0 mph20.9 kmh 30.44 in1030.8 mb 0.00 in0.0 mm 0.00 in0.0 mm 0.00 in0.0 mm
03:10 PM 12.9°F-10.6°C 5.0°F-15.0°C 70% 6.0 mph W9.7 kmh W -- 30.45 in1031.2 mb 0.00 in0.0 mm 0.00 in0.0 mm 0.00 in0.0 mm
03:15 PM 12.9°F-10.6°C 5.0°F-15.0°C 70% 7.0 mph W11.3 kmh W -- 30.45 in1031.2 mb 0.00 in0.0 mm 0.00 in0.0 mm 0.00 in0.0 mm
03:20 PM 12.9°F-10.6°C 5.3°F-14.8°C 71% 7.0 mph W11.3 kmh W -- 30.45 in1031.2 mb 0.00 in0.0 mm 0.00 in0.0 mm 0.00 in0.0 mm
03:25 PM 12.8°F-10.7°C 5.2°F-14.9°C 71% 8.0 mph W12.9 kmh W -- 30.45 in1031.2 mb 0.00 in0.0 mm 0.00 in0.0 mm 0.00 in0.0 mm
03:30 PM 13.0°F-10.6°C 5.4°F-14.8°C 71% 4.0 mph WSW6.4 kmh WSW -- 30.45 in1031.2 mb 0.00 in0.0 mm 0.00 in0.0 mm 0.00 in0.0 mm
03:35 PM 13.0°F-10.6°C 5.1°F-14.9°C 70% 5.0 mph WNW8.0 kmh WNW -- 30.45 in1031.2 mb 0.00 in0.0 mm 0.00 in0.0 mm 0.00 in0.0 mm
03:40 PM 13.2°F-10.4°C 5.3°F-14.8°C 70% 6.0 mph WNW9.7 kmh WNW -- 30.45 in1031.2 mb 0.00 in0.0 mm 0.00 in0.0 mm 0.00 in0.0 mm
03:45 PM 13.0°F-10.6°C 4.8°F-15.1°C 69% 5.0 mph W8.0 kmh W -- 30.45 in1031.2 mb 0.00 in0.0 mm 0.00 in0.0 mm 0.00 in0.0 mm
03:50 PM 12.9°F-10.6°C 4.7°F-15.2°C 69% 5.0 mph WSW8.0 kmh WSW 12.0 mph19.3 kmh 30.45 in1031.2 mb 0.00 in0.0 mm 0.00 in0.0 mm 0.00 in0.0 mm
03:55 PM 13.2°F-10.4°C 5.3°F-14.8°C 70% 5.0 mph WNW8.0 kmh WNW 12.0 mph19.3 kmh 30.45 in1031.2 mb 0.00 in0.0 mm 0.00 in0.0 mm 0.00 in0.0 mm
04:00 PM 13.2°F-10.4°C 5.0°F-15.0°C 69% 7.0 mph NW11.3 kmh NW -- 30.46 in1031.5 mb 0.00 in0.0 mm 0.00 in0.0 mm 0.00 in0.0 mm
04:05 PM 13.3°F-10.4°C 5.4°F-14.8°C 70% 5.0 mph W8.0 kmh W -- 30.46 in1031.5 mb 0.00 in0.0 mm 0.00 in0.0 mm 0.00 in0.0 mm
04:10 PM 13.2°F-10.4°C 5.0°F-15.0°C 69% 5.0 mph WNW8.0 kmh WNW -- 30.46 in1031.5 mb 0.00 in0.0 mm 0.00 in0.0 mm 0.00 in0.0 mm
04:15 PM 13.1°F-10.5°C 4.9°F-15.1°C 69% 5.0 mph NW8.0 kmh NW -- 30.46 in1031.5 mb 0.00 in0.0 mm 0.00 in0.0 mm 0.00 in0.0 mm
04:20 PM 13.1°F-10.5°C 7.0°F-13.9°C 76% 6.0 mph W9.7 kmh W -- 30.46 in1031.5 mb 0.00 in0.0 mm 0.00 in0.0 mm 0.00 in0.0 mm
04:25 PM 13.1°F-10.5°C 4.9°F-15.1°C 69% 5.0 mph W8.0 kmh W -- 30.46 in1031.5 mb 0.00 in0.0 mm 0.00 in0.0 mm 0.00 in0.0 mm
04:30 PM 13.1°F-10.5°C 5.2°F-14.9°C 70% 5.0 mph W8.0 kmh W -- 30.46 in1031.5 mb 0.00 in0.0 mm 0.00 in0.0 mm 0.00 in0.0 mm
04:35 PM 13.4°F-10.3°C 5.5°F-14.7°C 70% 6.0 mph WNW9.7 kmh WNW -- 30.47 in1031.8 mb 0.00 in0.0 mm 0.00 in0.0 mm 0.00 in0.0 mm
04:40 PM 13.2°F-10.4°C 5.3°F-14.8°C 70% 4.0 mph NW6.4 kmh NW 10.0 mph16.1 kmh 30.47 in1031.8 mb 0.00 in0.0 mm 0.00 in0.0 mm 0.00 in0.0 mm
04:45 PM 13.2°F-10.4°C 5.0°F-15.0°C 69% 6.0 mph WNW9.7 kmh WNW 10.0 mph16.1 kmh 30.47 in1031.8 mb 0.00 in0.0 mm 0.00 in0.0 mm 0.00 in0.0 mm
04:50 PM 13.4°F-10.3°C 5.2°F-14.9°C 69% 7.0 mph W11.3 kmh W -- 30.47 in1031.8 mb 0.00 in0.0 mm 0.00 in0.0 mm 0.00 in0.0 mm
04:55 PM 13.2°F-10.4°C 5.0°F-15.0°C 69% 10.0 mph WNW16.1 kmh WNW -- 30.47 in1031.8 mb 0.00 in0.0 mm 0.00 in0.0 mm 0.00 in0.0 mm
05:00 PM 13.1°F-10.5°C 4.9°F-15.1°C 69% 7.0 mph WNW11.3 kmh WNW -- 30.47 in1031.8 mb 0.00 in0.0 mm 0.00 in0.0 mm 0.00 in0.0 mm
05:05 PM 13.1°F-10.5°C 4.9°F-15.1°C 69% 5.0 mph W8.0 kmh W -- 30.47 in1031.8 mb 0.00 in0.0 mm 0.00 in0.0 mm 0.00 in0.0 mm
05:10 PM 13.1°F-10.5°C 4.9°F-15.1°C 69% 7.0 mph WNW11.3 kmh WNW -- 30.48 in1032.2 mb 0.00 in0.0 mm 0.00 in0.0 mm 0.00 in0.0 mm
05:15 PM 13.0°F-10.6°C 4.8°F-15.1°C 69% 4.0 mph WSW6.4 kmh WSW -- 30.48 in1032.2 mb 0.00 in0.0 mm 0.00 in0.0 mm 0.00 in0.0 mm
05:20 PM 12.9°F-10.6°C 4.7°F-15.2°C 69% 4.0 mph W6.4 kmh W -- 30.48 in1032.2 mb 0.00 in0.0 mm 0.00 in0.0 mm 0.00 in0.0 mm
05:25 PM 12.9°F-10.6°C 5.0°F-15.0°C 70% 2.0 mph W3.2 kmh W -- 30.48 in1032.2 mb 0.00 in0.0 mm 0.00 in0.0 mm 0.00 in0.0 mm
05:30 PM 13.0°F-10.6°C 4.8°F-15.1°C 69% 2.0 mph W3.2 kmh W 6.0 mph9.7 kmh 30.48 in1032.2 mb 0.00 in0.0 mm 0.00 in0.0 mm 0.00 in0.0 mm
05:35 PM 13.0°F-10.6°C 4.8°F-15.1°C 69% 3.0 mph NW4.8 kmh NW 6.0 mph9.7 kmh 30.48 in1032.2 mb 0.00 in0.0 mm 0.00 in0.0 mm 0.00 in0.0 mm
05:40 PM 12.9°F-10.6°C 4.7°F-15.2°C 69% 6.0 mph WNW9.7 kmh WNW -- 30.48 in1032.2 mb 0.00 in0.0 mm 0.00 in0.0 mm 0.00 in0.0 mm
05:45 PM 12.9°F-10.6°C 4.7°F-15.2°C 69% 3.0 mph W4.8 kmh W -- 30.49 in1032.5 mb 0.00 in0.0 mm 0.00 in0.0 mm 0.00 in0.0 mm
05:50 PM 12.8°F-10.7°C 4.3°F-15.4°C 68% 4.0 mph W6.4 kmh W -- 30.48 in1032.2 mb 0.00 in0.0 mm 0.00 in0.0 mm 0.00 in0.0 mm
05:55 PM 12.6°F-10.8°C 4.4°F-15.3°C 69% 2.0 mph W3.2 kmh W -- 30.48 in1032.2 mb 0.00 in0.0 mm 0.00 in0.0 mm 0.00 in0.0 mm
06:00 PM 12.4°F-10.9°C 4.2°F-15.4°C 69% 1.0 mph W1.6 kmh W -- 30.49 in1032.5 mb 0.00 in0.0 mm 0.00 in0.0 mm 0.00 in0.0 mm
06:05 PM 12.3°F-10.9°C 4.1°F-15.5°C 69% Calm Calm -- 30.49 in1032.5 mb 0.00 in0.0 mm 0.00 in0.0 mm 0.00 in0.0 mm
06:10 PM 11.9°F-11.2°C 3.7°F-15.7°C 69% Calm Calm -- 30.49 in1032.5 mb 0.00 in0.0 mm 0.00 in0.0 mm 0.00 in0.0 mm
06:15 PM 11.6°F-11.3°C 3.4°F-15.9°C 69% Calm Calm -- 30.49 in1032.5 mb 0.00 in0.0 mm 0.00 in0.0 mm 0.00 in0.0 mm
06:20 PM 11.2°F-11.6°C 3.4°F-15.9°C 70% Calm Calm -- 30.50 in1032.8 mb 0.00 in0.0 mm 0.00 in0.0 mm 0.00 in0.0 mm
06:25 PM 10.9°F-11.7°C 3.1°F-16.1°C 70% Calm Calm -- 30.50 in1032.8 mb 0.00 in0.0 mm 0.00 in0.0 mm 0.00 in0.0 mm
06:30 PM 10.7°F-11.8°C 3.2°F-16.0°C 71% Calm Calm -- 30.50 in1032.8 mb 0.00 in0.0 mm 0.00 in0.0 mm 0.00 in0.0 mm
06:35 PM 10.5°F-11.9°C 3.0°F-16.1°C 71% Calm Calm -- 30.50 in1032.8 mb 0.00 in0.0 mm 0.00 in0.0 mm 0.00 in0.0 mm
06:40 PM 10.2°F-12.1°C 2.7°F-16.3°C 71% Calm Calm -- 30.50 in1032.8 mb 0.00 in0.0 mm 0.00 in0.0 mm 0.00 in0.0 mm
06:45 PM 9.6°F-12.4°C 2.1°F-16.6°C 71% Calm Calm -- 30.50 in1032.8 mb 0.00 in0.0 mm 0.00 in0.0 mm 0.00 in0.0 mm
06:50 PM 9.2°F-12.7°C 2.0°F-16.7°C 72% Calm Calm -- 30.50 in1032.8 mb 0.00 in0.0 mm 0.00 in0.0 mm 0.00 in0.0 mm
06:55 PM 8.9°F-12.8°C 1.7°F-16.8°C 72% Calm Calm -- 30.50 in1032.8 mb 0.00 in0.0 mm 0.00 in0.0 mm 0.00 in0.0 mm
07:00 PM 8.5°F-13.1°C 1.4°F-17.0°C 72% Calm Calm -- 30.50 in1032.8 mb 0.00 in0.0 mm 0.00 in0.0 mm 0.00 in0.0 mm
07:05 PM 8.2°F-13.2°C 1.4°F-17.0°C 73% Calm Calm -- 30.50 in1032.8 mb 0.00 in0.0 mm 0.00 in0.0 mm 0.00 in0.0 mm
07:10 PM 8.1°F-13.3°C 1.3°F-17.1°C 73% Calm Calm -- 30.50 in1032.8 mb 0.00 in0.0 mm 0.00 in0.0 mm 0.00 in0.0 mm
07:15 PM 7.9°F-13.4°C 1.4°F-17.0°C 74% Calm Calm -- 30.50 in1032.8 mb 0.00 in0.0 mm 0.00 in0.0 mm 0.00 in0.0 mm
07:20 PM 7.7°F-13.5°C 1.2°F-17.1°C 74% Calm Calm -- 30.51 in1033.2 mb 0.00 in0.0 mm 0.00 in0.0 mm 0.00 in0.0 mm
07:25 PM 7.5°F-13.6°C 1.0°F-17.2°C 74% Calm Calm -- 30.51 in1033.2 mb 0.00 in0.0 mm 0.00 in0.0 mm 0.00 in0.0 mm
07:30 PM 7.2°F-13.8°C 0.7°F-17.4°C 74% Calm Calm -- 30.51 in1033.2 mb 0.00 in0.0 mm 0.00 in0.0 mm 0.00 in0.0 mm
07:35 PM 7.1°F-13.8°C 0.9°F-17.3°C 75% Calm Calm -- 30.51 in1033.2 mb 0.00 in0.0 mm 0.00 in0.0 mm 0.00 in0.0 mm
07:40 PM 6.9°F-13.9°C 0.7°F-17.4°C 75% Calm Calm -- 30.51 in1033.2 mb 0.00 in0.0 mm 0.00 in0.0 mm 0.00 in0.0 mm
07:45 PM 6.7°F-14.1°C 0.5°F-17.5°C 75% Calm Calm -- 30.51 in1033.2 mb 0.00 in0.0 mm 0.00 in0.0 mm 0.00 in0.0 mm
07:50 PM 6.4°F-14.2°C 0.5°F-17.5°C 76% Calm Calm -- 30.51 in1033.2 mb 0.00 in0.0 mm 0.00 in0.0 mm 0.00 in0.0 mm
07:55 PM 6.2°F-14.3°C 0.3°F-17.6°C 76% Calm Calm -- 30.52 in1033.5 mb 0.00 in0.0 mm 0.00 in0.0 mm 0.00 in0.0 mm
08:00 PM 5.8°F-14.6°C -0.1°F-17.8°C 76% Calm Calm -- 30.52 in1033.5 mb 0.00 in0.0 mm 0.00 in0.0 mm 0.00 in0.0 mm
08:05 PM 5.4°F-14.8°C -0.5°F-18.1°C 76% Calm Calm -- 30.52 in1033.5 mb 0.00 in0.0 mm 0.00 in0.0 mm 0.00 in0.0 mm
08:10 PM 5.1°F-14.9°C -0.5°F-18.1°C 77% Calm Calm -- 30.52 in1033.5 mb 0.00 in0.0 mm 0.00 in0.0 mm 0.00 in0.0 mm
08:15 PM 4.8°F-15.1°C -0.5°F-18.1°C 78% Calm Calm -- 30.52 in1033.5 mb 0.00 in0.0 mm 0.00 in0.0 mm 0.00 in0.0 mm
08:20 PM 4.6°F-15.2°C -0.7°F-18.2°C 78% Calm Calm -- 30.52 in1033.5 mb 0.00 in0.0 mm 0.00 in0.0 mm 0.00 in0.0 mm
08:25 PM 4.3°F-15.4°C -1.0°F-18.3°C 78% Calm Calm -- 30.52 in1033.5 mb 0.00 in0.0 mm 0.00 in0.0 mm 0.00 in0.0 mm
08:30 PM 4.0°F-15.6°C -1.3°F-18.5°C 78% Calm Calm -- 30.52 in1033.5 mb 0.00 in0.0 mm 0.00 in0.0 mm 0.00 in0.0 mm
08:35 PM 4.0°F-15.6°C -1.0°F-18.3°C 79% Calm Calm -- 30.52 in1033.5 mb 0.00 in0.0 mm 0.00 in0.0 mm 0.00 in0.0 mm
08:40 PM 4.0°F-15.6°C -1.0°F-18.3°C 79% Calm Calm -- 30.52 in1033.5 mb 0.00 in0.0 mm 0.00 in0.0 mm 0.00 in0.0 mm
08:45 PM 3.8°F-15.7°C -1.2°F-18.4°C 79% Calm Calm -- 30.52 in1033.5 mb 0.00 in0.0 mm 0.00 in0.0 mm 0.00 in0.0 mm
08:50 PM 3.5°F-15.8°C -1.5°F-18.6°C 79% Calm Calm -- 30.52 in1033.5 mb 0.00 in0.0 mm 0.00 in0.0 mm 0.00 in0.0 mm
08:55 PM 3.3°F-15.9°C -1.5°F-18.6°C 80% Calm Calm -- 30.52 in1033.5 mb 0.00 in0.0 mm 0.00 in0.0 mm 0.00 in0.0 mm
09:00 PM 3.2°F-16.0°C -1.6°F-18.7°C 80% Calm Calm -- 30.52 in1033.5 mb 0.00 in0.0 mm 0.00 in0.0 mm 0.00 in0.0 mm
09:05 PM 3.0°F-16.1°C -1.7°F-18.7°C 80% Calm Calm -- 30.52 in1033.5 mb 0.00 in0.0 mm 0.00 in0.0 mm 0.00 in0.0 mm
09:10 PM 2.8°F-16.2°C -1.9°F-18.8°C 80% Calm Calm -- 30.52 in1033.5 mb 0.00 in0.0 mm 0.00 in0.0 mm 0.00 in0.0 mm
09:15 PM 2.7°F-16.3°C -2.0°F-18.9°C 80% Calm Calm -- 30.52 in1033.5 mb 0.00 in0.0 mm 0.00 in0.0 mm 0.00 in0.0 mm
09:20 PM 2.7°F-16.3°C -1.8°F-18.8°C 81% Calm Calm -- 30.52 in1033.5 mb 0.00 in0.0 mm 0.00 in0.0 mm 0.00 in0.0 mm
09:25 PM 2.6°F-16.3°C -1.9°F-18.8°C 81% Calm Calm -- 30.52 in1033.5 mb 0.00 in0.0 mm 0.00 in0.0 mm 0.00 in0.0 mm
09:30 PM 2.4°F-16.4°C -2.1°F-18.9°C 81% Calm Calm -- 30.52 in1033.5 mb 0.00 in0.0 mm 0.00 in0.0 mm 0.00 in0.0 mm
09:35 PM 2.2°F-16.6°C -2.3°F-19.1°C 81% Calm Calm -- 30.52 in1033.5 mb 0.00 in0.0 mm 0.00 in0.0 mm 0.00 in0.0 mm
09:40 PM 2.1°F-16.6°C -2.4°F-19.1°C 81% Calm Calm -- 30.52 in1033.5 mb 0.00 in0.0 mm 0.00 in0.0 mm 0.00 in0.0 mm
09:45 PM 2.0°F-16.7°C -2.2°F-19.0°C 82% Calm Calm -- 30.52 in1033.5 mb 0.00 in0.0 mm 0.00 in0.0 mm 0.00 in0.0 mm
09:50 PM 2.0°F-16.7°C -2.2°F-19.0°C 82% Calm Calm -- 30.52 in1033.5 mb 0.00 in0.0 mm 0.00 in0.0 mm 0.00 in0.0 mm
09:55 PM 1.9°F-16.7°C -2.3°F-19.1°C 82% Calm Calm -- 30.52 in1033.5 mb 0.00 in0.0 mm 0.00 in0.0 mm 0.00 in0.0 mm
10:00 PM 1.9°F-16.7°C -2.3°F-19.1°C 82% Calm Calm -- 30.52 in1033.5 mb 0.00 in0.0 mm 0.00 in0.0 mm 0.00 in0.0 mm
10:05 PM 1.8°F-16.8°C -2.4°F-19.1°C 82% Calm Calm -- 30.52 in1033.5 mb 0.00 in0.0 mm 0.00 in0.0 mm 0.00 in0.0 mm
10:10 PM 1.9°F-16.7°C -2.3°F-19.1°C 82% Calm Calm -- 30.52 in1033.5 mb 0.00 in0.0 mm 0.00 in0.0 mm 0.00 in0.0 mm
10:15 PM 1.7°F-16.8°C -2.5°F-19.2°C 82% Calm Calm -- 30.52 in1033.5 mb 0.00 in0.0 mm 0.00 in0.0 mm 0.00 in0.0 mm
10:20 PM 1.4°F-17.0°C -2.8°F-19.3°C 82% Calm Calm -- 30.52 in1033.5 mb 0.00 in0.0 mm 0.00 in0.0 mm 0.00 in0.0 mm
10:25 PM 1.4°F-17.0°C -2.5°F-19.2°C 83% Calm Calm -- 30.52 in1033.5 mb 0.00 in0.0 mm 0.00 in0.0 mm 0.00 in0.0 mm
10:30 PM 1.3°F-17.1°C -2.9°F-19.4°C 82% Calm Calm -- 30.52 in1033.5 mb 0.00 in0.0 mm 0.00 in0.0 mm 0.00 in0.0 mm
10:35 PM 1.0°F-17.2°C -3.2°F-19.6°C 82% Calm Calm -- 30.52 in1033.5 mb 0.00 in0.0 mm 0.00 in0.0 mm 0.00 in0.0 mm
10:40 PM 0.6°F-17.4°C -3.6°F-19.8°C 82% Calm Calm -- 30.52 in1033.5 mb 0.00 in0.0 mm 0.00 in0.0 mm 0.00 in0.0 mm
10:45 PM 0.6°F-17.4°C -3.3°F-19.6°C 83% Calm Calm -- 30.52 in1033.5 mb 0.00 in0.0 mm 0.00 in0.0 mm 0.00 in0.0 mm
10:50 PM 0.4°F-17.6°C -3.5°F-19.7°C 83% Calm Calm -- 30.53 in1033.9 mb 0.00 in0.0 mm 0.00 in0.0 mm 0.00 in0.0 mm
10:55 PM 0.1°F-17.7°C -4.1°F-20.1°C 82% Calm Calm -- 30.52 in1033.5 mb 0.00 in0.0 mm 0.00 in0.0 mm 0.00 in0.0 mm
11:00 PM 0.1°F-17.7°C -3.8°F-19.9°C 83% Calm Calm -- 30.53 in1033.9 mb 0.00 in0.0 mm 0.00 in0.0 mm 0.00 in0.0 mm
11:05 PM 0.0°F-17.8°C -3.9°F-19.9°C 83% Calm Calm -- 30.53 in1033.9 mb 0.00 in0.0 mm 0.00 in0.0 mm 0.00 in0.0 mm
11:10 PM -0.1°F-17.8°C -4.0°F-20.0°C 83% Calm Calm -- 30.53 in1033.9 mb 0.00 in0.0 mm 0.00 in0.0 mm 0.00 in0.0 mm
11:15 PM -0.3°F-17.9°C -4.2°F-20.1°C 83% Calm Calm -- 30.52 in1033.5 mb 0.00 in0.0 mm 0.00 in0.0 mm 0.00 in0.0 mm
11:20 PM -0.6°F-18.1°C -4.5°F-20.3°C 83% Calm Calm -- 30.52 in1033.5 mb 0.00 in0.0 mm 0.00 in0.0 mm 0.00 in0.0 mm
11:25 PM -0.6°F-18.1°C -4.5°F-20.3°C 83% Calm Calm -- 30.52 in1033.5 mb 0.00 in0.0 mm 0.00 in0.0 mm 0.00 in0.0 mm
11:30 PM -0.8°F-18.2°C -4.7°F-20.4°C 83% Calm Calm -- 30.52 in1033.5 mb 0.00 in0.0 mm 0.00 in0.0 mm 0.00 in0.0 mm
11:35 PM -1.1°F-18.4°C -5.0°F-20.6°C 83% Calm Calm -- 30.52 in1033.5 mb 0.00 in0.0 mm 0.00 in0.0 mm 0.00 in0.0 mm
11:40 PM -0.2°F-17.9°C -4.1°F-20.1°C 83% Calm Calm -- 30.51 in1033.2 mb 0.00 in0.0 mm 0.00 in0.0 mm 0.00 in0.0 mm
11:45 PM -0.3°F-17.9°C -3.0°F-19.4°C 88% Calm Calm -- 30.51 in1033.2 mb 0.00 in0.0 mm 0.00 in0.0 mm 0.00 in0.0 mm
11:50 PM -0.6°F-18.1°C -3.5°F-19.7°C 87% Calm Calm -- 30.52 in1033.5 mb 0.00 in0.0 mm 0.00 in0.0 mm 0.00 in0.0 mm
11:55 PM -0.7°F-18.2°C -3.4°F-19.7°C 88% Calm Calm -- 30.51 in1033.2 mb 0.00 in0.0 mm 0.00 in0.0 mm 0.00 in0.0 mm